Terminal Aerodrome Forecast
Issued by NWS Lake Charles, LA

Home | Current Version | Previous Version | Text Only | Print | Product List | Glossary On
Versions: 1 2 3 4 5 6 7 8 9 10 11 12 13 14 15 16 17 18 19 20 21
000
FTUS44 KLCH 240500
TAFBPT
TAF
KBPT 240520Z 2406/2506 17005KT P6SM FEW015
     FM240800 17006KT P6SM BKN015 BKN250
     FM241500 17010KT P6SM BKN025 BKN250
     FM241800 18014G20KT P6SM SCT035 BKN250
     FM250000 20008KT P6SM BKN020=

USA.gov is the U.S. government's official web portal to all federal, state and local government web resources and services.